createdAt,value
2018-08-09T00:01:10.545Z,3.70
2018-08-09T00:03:38.948Z,3.83
2018-08-09T00:06:07.322Z,4.33
2018-08-09T00:08:36.054Z,4.50
2018-08-09T00:11:04.447Z,4.70
2018-08-09T00:13:33.519Z,4.43
2018-08-09T00:16:01.915Z,4.77
2018-08-09T00:18:30.621Z,5.27
2018-08-09T00:20:59.455Z,4.17
2018-08-09T00:23:27.849Z,4.70
2018-08-09T00:25:56.235Z,5.00
2018-08-09T00:28:24.621Z,4.40
2018-08-09T00:30:53.016Z,3.83
2018-08-09T00:33:21.405Z,3.83
2018-08-09T00:35:49.824Z,4.30
2018-08-09T00:38:18.346Z,4.43
2018-08-09T00:40:46.757Z,3.90
2018-08-09T00:43:15.159Z,4.43
2018-08-09T00:45:43.981Z,4.33
2018-08-09T00:48:12.362Z,4.30
2018-08-09T00:50:41.188Z,4.53
2018-08-09T00:53:09.607Z,4.03
2018-08-09T00:55:37.987Z,4.10
2018-08-09T00:58:06.789Z,4.57
2018-08-09T01:00:35.834Z,4.30
2018-08-09T01:03:04.219Z,4.73
2018-08-09T01:05:32.622Z,4.23
2018-08-09T01:08:01.024Z,4.50
2018-08-09T01:10:29.407Z,4.47
2018-08-09T01:12:58.096Z,3.90
2018-08-09T01:15:26.618Z,3.93
2018-08-09T01:17:55.036Z,4.33
2018-08-09T01:20:23.438Z,3.93
2018-08-09T01:22:52.023Z,4.73
2018-08-09T01:25:21.062Z,5.27
2018-08-09T01:27:49.668Z,4.93
2018-08-09T01:30:18.082Z,4.40
2018-08-09T01:32:46.548Z,5.03
2018-08-09T01:35:15.422Z,4.23
2018-08-09T01:37:43.829Z,5.03
2018-08-09T01:40:12.572Z,4.10
2018-08-09T01:42:52.242Z,4.53
2018-08-09T01:45:21.855Z,4.60
2018-08-09T01:47:50.256Z,4.50
2018-08-09T01:50:18.772Z,4.90
2018-08-09T01:52:48.172Z,4.67
2018-08-09T01:55:16.560Z,4.50
2018-08-09T01:57:44.946Z,4.33
2018-08-09T02:00:13.601Z,4.80
2018-08-09T02:02:41.991Z,4.90
2018-08-09T02:05:11.213Z,4.53
2018-08-09T02:07:39.594Z,4.07
2018-08-09T02:10:08.013Z,4.40
2018-08-09T02:12:36.404Z,4.10
2018-08-09T02:15:05.131Z,3.70
2018-08-09T02:17:33.538Z,3.87
2018-08-09T02:20:02.528Z,4.30
2018-08-09T02:22:30.939Z,4.63
2018-08-09T02:24:59.339Z,4.57
2018-08-09T02:27:27.765Z,4.77
2018-08-09T02:29:56.148Z,4.83
2018-08-09T02:32:24.967Z,4.63
2018-08-09T02:34:53.341Z,4.87
2018-08-09T02:37:21.722Z,4.23
2018-08-09T02:39:50.109Z,4.40
2018-08-09T02:42:18.518Z,4.77
2018-08-09T02:44:46.924Z,5.50
2018-08-09T02:47:15.313Z,5.00
2018-08-09T02:49:43.714Z,4.67
2018-08-09T02:52:12.125Z,5.20
2018-08-09T02:54:40.502Z,4.87
2018-08-09T02:57:09.691Z,4.57
2018-08-09T02:59:38.090Z,4.83
2018-08-09T03:02:06.561Z,4.90
2018-08-09T03:04:34.950Z,5.20
2018-08-09T03:07:03.606Z,5.40
2018-08-09T03:09:31.995Z,5.00
2018-08-09T03:12:00.406Z,4.87
2018-08-09T03:14:28.802Z,5.40
2018-08-09T03:16:57.684Z,5.67
2018-08-09T03:19:26.095Z,5.73
2018-08-09T03:21:54.483Z,5.17
2018-08-09T03:24:22.906Z,5.07
2018-08-09T03:26:52.064Z,5.37
2018-08-09T03:29:20.595Z,5.40
2018-08-09T03:31:48.997Z,5.20
2018-08-09T03:34:17.392Z,5.53
2018-08-09T03:36:45.770Z,5.50
2018-08-09T03:39:14.187Z,5.23
2018-08-09T03:41:42.584Z,4.73
2018-08-09T03:44:10.972Z,5.00
2018-08-09T03:46:39.366Z,4.33
2018-08-09T03:49:07.954Z,4.90
2018-08-09T03:51:36.368Z,5.03
2018-08-09T03:54:04.810Z,5.23
2018-08-09T03:56:33.220Z,5.10
2018-08-09T03:59:01.637Z,5.30
2018-08-09T04:01:30.033Z,4.77
2018-08-09T04:03:58.419Z,4.70
2018-08-09T04:06:26.804Z,5.00
2018-08-09T04:08:55.278Z,5.10
2018-08-09T04:11:23.670Z,5.30
2018-08-09T04:13:52.755Z,5.50
2018-08-09T04:16:21.606Z,5.17
2018-08-09T04:18:50.005Z,5.90
2018-08-09T04:21:18.413Z,5.63
2018-08-09T04:23:46.797Z,6.87
2018-08-09T04:26:16.268Z,7.17
2018-08-09T04:28:45.025Z,6.40
2018-08-09T04:31:13.419Z,7.10
2018-08-09T04:33:41.829Z,8.10
2018-08-09T04:36:10.473Z,7.67
2018-08-09T04:38:39.479Z,7.97
2018-08-09T04:41:07.877Z,6.87
2018-08-09T04:43:36.249Z,6.60
2018-08-09T04:46:04.787Z,6.27
2018-08-09T04:48:33.225Z,6.23
2018-08-09T04:51:01.625Z,6.90
2018-08-09T04:53:30.021Z,6.80
2018-08-09T04:55:58.885Z,5.83
2018-08-09T04:58:27.357Z,5.70
2018-08-09T05:00:55.848Z,5.53
2018-08-09T05:03:24.305Z,6.80
2018-08-09T05:05:52.685Z,6.67
2018-08-09T05:08:21.093Z,5.23
2018-08-09T05:10:49.496Z,5.67
2018-08-09T05:13:17.898Z,5.30
2018-08-09T05:15:46.388Z,5.90
2018-08-09T05:18:14.772Z,6.77
2018-08-09T05:20:43.290Z,6.80
2018-08-09T05:23:11.785Z,6.27
2018-08-09T05:25:40.140Z,7.20
2018-08-09T05:28:09.202Z,6.43
2018-08-09T05:30:37.589Z,6.83
2018-08-09T05:33:05.972Z,6.47
2018-08-09T05:35:34.412Z,6.37
2018-08-09T05:38:02.941Z,5.90
2018-08-09T05:40:31.345Z,6.40
2018-08-09T05:42:59.755Z,6.30
2018-08-09T05:45:28.144Z,6.07
2018-08-09T05:47:56.966Z,6.40
2018-08-09T05:50:25.338Z,6.13
2018-08-09T05:52:53.810Z,5.90
2018-08-09T05:55:22.138Z,5.80
2018-08-09T05:57:51.029Z,6.10
2018-08-09T06:00:19.427Z,5.83
2018-08-09T06:02:47.821Z,6.37
2018-08-09T06:05:16.211Z,5.90
2018-08-09T06:07:44.614Z,5.97
2018-08-09T06:10:13.009Z,6.67
2018-08-09T06:12:41.398Z,6.03
2018-08-09T06:15:09.835Z,5.53
2018-08-09T06:17:38.230Z,6.07
2018-08-09T06:20:07.346Z,5.70
2018-08-09T06:22:35.789Z,6.37
2018-08-09T06:25:05.387Z,5.83
2018-08-09T06:27:33.829Z,6.57
2018-08-09T06:30:02.549Z,5.87
2018-08-09T06:32:31.000Z,6.70
2018-08-09T06:34:59.587Z,5.73
2018-08-09T06:37:27.980Z,5.40
2018-08-09T06:39:56.372Z,6.23
2018-08-09T06:42:25.102Z,6.57
2018-08-09T06:44:53.523Z,6.47
2018-08-09T06:47:22.518Z,6.30
2018-08-09T06:49:50.965Z,6.57
2018-08-09T06:52:19.387Z,6.20
2018-08-09T06:54:47.787Z,6.10
2018-08-09T06:57:16.358Z,6.77
2018-08-09T06:59:45.711Z,6.73
2018-08-09T07:02:14.307Z,6.70
2018-08-09T07:04:43.174Z,7.20
2018-08-09T07:07:11.599Z,6.50
2018-08-09T07:09:39.996Z,7.27
2018-08-09T07:12:08.397Z,7.30
2018-08-09T07:14:36.821Z,7.17
2018-08-09T07:17:05.222Z,7.10
2018-08-09T07:19:33.657Z,7.33
2018-08-09T07:22:02.831Z,6.53
2018-08-09T07:24:30.600Z,6.87
2018-08-09T07:26:59.011Z,6.63
2018-08-09T07:29:27.413Z,7.30
2018-08-09T07:31:55.813Z,6.27
2018-08-09T07:34:24.227Z,6.93
2018-08-09T07:36:52.628Z,7.17
2018-08-09T07:39:21.077Z,6.10
2018-08-09T07:41:49.456Z,6.93
2018-08-09T07:44:17.863Z,6.27
2018-08-09T07:46:46.344Z,6.37
2018-08-09T07:49:14.821Z,6.47
2018-08-09T07:51:43.224Z,6.30
2018-08-09T07:54:11.603Z,6.17
2018-08-09T07:56:40.390Z,5.83
2018-08-09T07:59:09.158Z,6.30
2018-08-09T08:01:37.622Z,6.20
2018-08-09T08:04:06.022Z,6.27
2018-08-09T08:06:34.493Z,6.07
2018-08-09T08:09:02.984Z,5.97
2018-08-09T08:11:31.696Z,6.57
2018-08-09T08:14:00.087Z,6.27
2018-08-09T08:16:28.499Z,6.27
2018-08-09T08:18:56.895Z,6.30
2018-08-09T08:21:25.282Z,6.10
2018-08-09T08:23:53.673Z,5.60
2018-08-09T08:26:22.764Z,5.93
2018-08-09T08:28:52.075Z,6.00
2018-08-09T08:31:20.473Z,5.53
2018-08-09T08:33:49.071Z,5.63
2018-08-09T08:36:17.474Z,6.17
2018-08-09T08:38:45.879Z,6.47
2018-08-09T08:41:15.010Z,6.17
2018-08-09T08:43:43.437Z,7.33
2018-08-09T08:46:11.828Z,6.53
2018-08-09T08:48:40.224Z,8.03
2018-08-09T08:51:08.614Z,7.40
2018-08-09T08:53:37.024Z,7.27
2018-08-09T08:56:05.424Z,7.03
2018-08-09T08:58:33.821Z,7.10
2018-08-09T09:01:02.294Z,8.27
2018-08-09T09:03:31.088Z,8.60
2018-08-09T09:05:59.700Z,7.90
2018-08-09T09:08:28.099Z,8.23
2018-08-09T09:10:58.187Z,8.47
2018-08-09T09:13:26.598Z,8.53
2018-08-09T09:15:55.012Z,8.37
2018-08-09T09:18:23.456Z,7.80
2018-08-09T09:20:51.869Z,8.07
2018-08-09T09:23:20.263Z,8.00
2018-08-09T09:25:48.654Z,9.20
2018-08-09T09:28:17.060Z,8.87
2018-08-09T09:30:45.446Z,8.23
2018-08-09T09:33:13.862Z,8.80
2018-08-09T09:35:42.246Z,8.83
2018-08-09T09:38:11.058Z,9.23
2018-08-09T09:40:39.457Z,9.37
2018-08-09T09:43:07.857Z,9.43
2018-08-09T09:45:36.268Z,10.27
2018-08-09T09:48:04.810Z,10.20
2018-08-09T09:50:33.955Z,10.57
2018-08-09T09:53:02.804Z,11.03
2018-08-09T09:55:31.249Z,11.33
2018-08-09T09:57:59.682Z,11.93
2018-08-09T10:00:28.150Z,11.87
2018-08-09T10:02:56.858Z,12.13
2018-08-09T10:05:25.263Z,13.63
2018-08-09T10:07:53.698Z,12.73
2018-08-09T10:10:22.478Z,13.37
2018-08-09T10:12:50.938Z,12.47
2018-08-09T10:15:19.301Z,14.13
2018-08-09T10:17:47.707Z,14.60
2018-08-09T10:20:16.109Z,14.27
2018-08-09T10:22:44.513Z,13.33
2018-08-09T10:25:12.929Z,12.67
2018-08-09T10:27:41.317Z,13.77
2018-08-09T10:30:10.337Z,14.57
2018-08-09T10:32:38.769Z,13.07
2018-08-09T10:35:07.597Z,13.50
2018-08-09T10:37:36.001Z,15.17
2018-08-09T10:40:04.777Z,15.87
2018-08-09T10:42:33.182Z,16.70
2018-08-09T10:45:01.577Z,15.50
2018-08-09T10:47:30.618Z,16.63
2018-08-09T10:50:02.354Z,16.30
2018-08-09T10:52:30.799Z,17.00
2018-08-09T10:54:59.197Z,19.53
2018-08-09T10:57:27.602Z,17.70
2018-08-09T10:59:56.006Z,17.90
2018-08-09T11:02:24.406Z,19.07
2018-08-09T11:04:53.035Z,18.80
2018-08-09T11:07:21.511Z,19.27
2018-08-09T11:09:50.136Z,20.73
2018-08-09T11:12:18.955Z,20.83
2018-08-09T11:14:47.344Z,18.97
2018-08-09T11:17:16.004Z,18.33
2018-08-09T11:19:44.558Z,18.13
2018-08-09T11:22:12.972Z,16.90
2018-08-09T11:24:41.382Z,20.33
2018-08-09T11:27:09.827Z,19.13
2018-08-09T11:29:38.508Z,19.87
2018-08-09T11:32:06.906Z,20.10
2018-08-09T11:34:35.299Z,22.97
2018-08-09T11:37:03.697Z,23.40
2018-08-09T11:39:32.091Z,22.90
2018-08-09T11:42:00.770Z,22.20
2018-08-09T11:44:29.166Z,22.27
2018-08-09T11:46:57.575Z,22.97
2018-08-09T11:49:26.067Z,22.87
2018-08-09T11:51:54.835Z,21.80
2018-08-09T11:54:23.230Z,23.90
2018-08-09T11:56:51.627Z,23.43
2018-08-09T11:59:20.042Z,21.07
2018-08-09T12:01:48.781Z,24.80
2018-08-09T12:04:17.183Z,24.57
2018-08-09T12:06:46.103Z,24.93
2018-08-09T12:09:14.501Z,24.03
2018-08-09T12:11:42.930Z,25.47
2018-08-09T12:14:11.360Z,25.80
2018-08-09T12:16:40.017Z,27.33
2018-08-09T12:19:08.633Z,25.00
2018-08-09T12:21:37.091Z,23.50
2018-08-09T12:24:05.928Z,24.77
2018-08-09T12:26:34.593Z,24.00
2018-08-09T12:29:03.013Z,23.73
2018-08-09T12:31:31.423Z,25.30
2018-08-09T12:33:59.901Z,24.27
2018-08-09T12:36:28.902Z,24.47
2018-08-09T12:38:57.311Z,23.83
2018-08-09T12:41:25.733Z,25.07
2018-08-09T12:43:54.141Z,23.97
2018-08-09T12:46:22.829Z,22.90
2018-08-09T12:48:51.296Z,22.20
2018-08-09T12:51:19.735Z,22.40
2018-08-09T12:53:48.145Z,20.30
2018-08-09T12:56:16.533Z,20.63
2018-08-09T12:58:44.938Z,20.43
2018-08-09T13:01:13.317Z,20.37
2018-08-09T13:03:41.725Z,20.67
2018-08-09T13:06:10.163Z,20.07
2018-08-09T13:08:38.554Z,18.93
2018-08-09T13:11:06.973Z,21.40
2018-08-09T13:13:35.379Z,22.70
2018-08-09T13:16:03.780Z,21.60
2018-08-09T13:18:32.177Z,22.43
2018-08-09T13:21:00.586Z,23.03
2018-08-09T13:23:29.214Z,22.73
2018-08-09T13:25:58.010Z,21.60
2018-08-09T13:28:26.428Z,22.60
2018-08-09T13:30:54.810Z,22.70
2018-08-09T13:33:23.215Z,23.53
2018-08-09T13:35:51.607Z,23.97
2018-08-09T13:38:20.000Z,24.47
2018-08-09T13:40:48.400Z,24.23
2018-08-09T13:43:16.806Z,23.10
2018-08-09T13:45:45.218Z,25.57
2018-08-09T13:48:14.030Z,24.17
2018-08-09T13:50:44.442Z,25.23
2018-08-09T13:53:13.431Z,25.80
2018-08-09T13:55:42.471Z,27.83
2018-08-09T13:58:12.113Z,29.67
2018-08-09T14:00:41.137Z,27.37
2018-08-09T14:03:12.091Z,28.97
2018-08-09T14:05:40.817Z,28.67
2018-08-09T14:08:09.495Z,27.00
2018-08-09T14:10:39.047Z,29.27
2018-08-09T14:13:08.921Z,29.83
2018-08-09T14:15:39.360Z,29.70
2018-08-09T14:18:10.229Z,30.60
2018-08-09T14:20:39.716Z,31.23
2018-08-09T14:23:09.589Z,29.80
2018-08-09T14:25:39.017Z,29.43
2018-08-09T14:28:09.131Z,30.73
2018-08-09T14:30:40.327Z,30.57
2018-08-09T14:33:10.115Z,28.13
2018-08-09T14:35:38.808Z,28.43
2018-08-09T14:38:08.263Z,26.73
2018-08-09T14:40:36.903Z,19.17
2018-08-09T14:43:07.001Z,18.87
2018-08-09T14:45:37.452Z,16.50
2018-08-09T14:48:07.073Z,16.17
2018-08-09T14:50:35.701Z,18.37
2018-08-09T14:53:04.322Z,20.43
2018-08-09T14:55:33.022Z,21.77
2018-08-09T14:58:02.296Z,19.23
2018-08-09T15:00:30.906Z,18.77
2018-08-09T15:02:59.306Z,16.83
2018-08-09T15:05:27.703Z,15.60
2018-08-09T15:07:56.112Z,14.60
2018-08-09T15:10:24.533Z,13.00
2018-08-09T15:12:52.942Z,11.97
2018-08-09T15:15:21.351Z,12.07
2018-08-09T15:17:49.752Z,13.57
2018-08-09T15:20:18.158Z,11.57
2018-08-09T15:22:46.572Z,11.77
2018-08-09T15:25:14.990Z,12.53
2018-08-09T15:27:43.409Z,12.33
2018-08-09T15:30:18.506Z,12.90
2018-08-09T15:32:47.627Z,11.80
2018-08-09T15:35:16.564Z,12.37
2018-08-09T15:37:45.778Z,11.33
2018-08-09T15:40:15.595Z,11.03
2018-08-09T15:42:44.027Z,9.97
2018-08-09T15:45:13.779Z,11.20
2018-08-09T15:47:43.084Z,9.87
2018-08-09T15:50:13.822Z,10.60
2018-08-09T15:52:43.053Z,8.93
2018-08-09T15:55:11.963Z,10.37
2018-08-09T15:57:40.365Z,9.63
2018-08-09T16:00:15.415Z,10.40
2018-08-09T16:02:44.643Z,13.77
2018-08-09T16:06:42.477Z,12.33
2018-08-09T16:09:14.862Z,18.47
2018-08-09T16:11:43.297Z,14.37
2018-08-09T16:14:12.245Z,13.47
2018-08-09T16:16:40.662Z,12.17
2018-08-09T16:19:09.813Z,12.63
2018-08-09T16:21:38.778Z,10.73
2018-08-09T16:24:07.306Z,10.00
2018-08-09T16:26:35.815Z,9.13
2018-08-09T16:29:06.131Z,9.70
2018-08-09T16:31:34.756Z,9.20
2018-08-09T16:34:03.178Z,9.20
2018-08-09T16:36:32.006Z,10.20
2018-08-09T16:39:00.432Z,10.73
2018-08-09T16:41:29.051Z,12.67
2018-08-09T16:43:57.458Z,12.30
2018-08-09T16:46:25.917Z,12.97
2018-08-09T16:48:55.008Z,11.23
2018-08-09T16:51:23.596Z,4.70
2018-08-09T16:53:52.422Z,4.10
2018-08-09T16:56:21.954Z,3.17
2018-08-09T16:58:50.571Z,3.30
2018-08-09T17:01:19.184Z,3.30
2018-08-09T17:03:47.810Z,4.00
2018-08-09T17:06:16.487Z,4.30
2018-08-09T17:08:44.940Z,5.03
2018-08-09T17:11:13.334Z,5.60
2018-08-09T17:13:41.756Z,6.23
2018-08-09T17:16:10.170Z,6.30
2018-08-09T17:18:38.575Z,6.63
2018-08-09T17:21:07.864Z,6.20
2018-08-09T17:23:36.284Z,6.03
2018-08-09T17:26:04.722Z,4.50
2018-08-09T17:28:33.608Z,3.00
2018-08-09T17:31:02.525Z,2.67
2018-08-09T17:33:30.926Z,2.47
2018-08-09T17:35:59.384Z,2.40
2018-08-09T17:38:27.790Z,2.10
2018-08-09T17:40:56.971Z,2.33
2018-08-09T17:43:25.440Z,2.20
2018-08-09T17:45:54.329Z,1.87
2018-08-09T17:48:22.759Z,1.90
2018-08-09T17:50:51.424Z,2.30
2018-08-09T17:53:20.151Z,2.73
2018-08-09T17:55:48.589Z,3.03
2018-08-09T17:58:16.987Z,3.03
2018-08-09T18:00:45.566Z,2.90
2018-08-09T18:03:14.200Z,2.30
2018-08-09T18:05:42.856Z,2.40
2018-08-09T18:08:11.319Z,2.20
2018-08-09T18:10:39.858Z,2.10
2018-08-09T18:13:08.346Z,2.30
2018-08-09T18:15:36.964Z,2.10
2018-08-09T18:18:05.809Z,2.60
2018-08-09T18:20:35.983Z,2.60
2018-08-09T18:23:04.453Z,1.83
2018-08-09T18:25:32.952Z,2.00
2018-08-09T18:28:01.347Z,2.73
2018-08-09T18:30:29.741Z,2.50
2018-08-09T18:32:59.210Z,2.00
2018-08-09T18:35:27.573Z,2.43
2018-08-09T18:37:56.007Z,2.47
2018-08-09T18:40:26.257Z,2.87
2018-08-09T18:42:54.649Z,2.53
2018-08-09T18:45:23.282Z,2.60
2018-08-09T18:47:51.702Z,2.63
2018-08-09T18:50:28.840Z,2.00
2018-08-09T18:52:57.641Z,2.13
2018-08-09T18:55:26.052Z,2.40
2018-08-09T18:57:54.450Z,2.70
2018-08-09T19:00:27.233Z,2.27
2018-08-09T19:02:56.494Z,2.10
2018-08-09T19:06:54.338Z,2.20
2018-08-09T19:09:22.912Z,2.70
2018-08-09T19:11:51.506Z,2.40
2018-08-09T19:14:48.991Z,2.40
2018-08-09T19:17:17.415Z,2.50
2018-08-09T19:19:45.800Z,2.37
2018-08-09T19:22:14.190Z,1.90
2018-08-09T19:24:42.616Z,2.17
2018-08-09T19:27:11.039Z,2.10
2018-08-09T19:29:39.792Z,2.60
2018-08-09T19:32:08.287Z,2.00
2018-08-09T19:34:36.728Z,2.27
2018-08-09T19:37:05.140Z,1.80
2018-08-09T19:39:33.700Z,2.07
2018-08-09T19:42:02.471Z,2.03
2018-08-09T19:44:31.034Z,1.67
2018-08-09T19:46:59.494Z,1.97
2018-08-09T19:49:27.882Z,1.90
2018-08-09T19:51:57.580Z,1.90
2018-08-09T19:54:26.497Z,2.60
2018-08-09T19:56:57.123Z,2.07
2018-08-09T19:59:26.142Z,2.13
2018-08-09T20:01:54.935Z,2.30
2018-08-09T20:04:23.683Z,2.03
2018-08-09T20:06:54.073Z,1.77
2018-08-09T20:09:22.750Z,2.10
2018-08-09T20:11:51.173Z,1.67
2018-08-09T20:14:19.610Z,1.70
2018-08-09T20:16:48.013Z,1.30
2018-08-09T20:19:16.393Z,1.63
2018-08-09T20:21:44.797Z,2.53
2018-08-09T20:24:13.209Z,2.10
2018-08-09T20:26:41.615Z,1.93
2018-08-09T20:29:10.371Z,2.30
2018-08-09T20:31:38.761Z,2.10
2018-08-09T20:34:07.171Z,2.40
2018-08-09T20:36:35.643Z,2.40
2018-08-09T20:39:06.103Z,2.60
2018-08-09T20:41:34.704Z,2.10
2018-08-09T20:44:03.105Z,2.00
2018-08-09T20:46:31.519Z,2.00
2018-08-09T20:49:00.766Z,2.43
2018-08-09T20:51:29.179Z,2.30
2018-08-09T20:53:57.602Z,3.07
2018-08-09T20:56:27.010Z,3.40
2018-08-09T20:58:56.250Z,4.40
2018-08-09T21:01:25.003Z,4.67
2018-08-09T21:03:53.413Z,4.80
2018-08-09T21:06:21.858Z,7.23
2018-08-09T21:08:50.270Z,7.97
2018-08-09T21:11:18.682Z,8.37
2018-08-09T21:13:47.115Z,8.87
2018-08-09T21:16:15.536Z,7.40
2018-08-09T21:18:43.938Z,6.13
2018-08-09T21:21:12.330Z,5.47
2018-08-09T21:23:40.732Z,4.47
2018-08-09T21:26:09.212Z,4.13
2018-08-09T21:28:37.664Z,3.67
2018-08-09T21:31:06.074Z,3.67
2018-08-09T21:33:34.479Z,3.40
2018-08-09T21:36:02.970Z,4.03
2018-08-09T21:38:31.366Z,4.17
2018-08-09T21:40:59.754Z,4.00
2018-08-09T21:43:28.147Z,4.10
2018-08-09T21:45:56.533Z,3.90
2018-08-09T21:48:24.913Z,4.10
2018-08-09T21:50:53.332Z,4.13
2018-08-09T21:53:21.725Z,4.30
2018-08-09T21:55:50.119Z,4.23
2018-08-09T21:58:18.519Z,4.60
2018-08-09T22:00:55.393Z,4.50
2018-08-09T22:03:27.491Z,5.10
2018-08-09T22:06:01.459Z,4.43
2018-08-09T22:08:35.321Z,4.87
2018-08-09T22:11:09.134Z,5.00
2018-08-09T22:13:42.809Z,4.87
2018-08-09T22:16:16.587Z,5.23
2018-08-09T22:18:50.245Z,5.30
2018-08-09T22:21:24.058Z,5.73
2018-08-09T22:23:52.495Z,6.23
2018-08-09T22:26:21.165Z,5.80
2018-08-09T22:28:49.567Z,5.43
2018-08-09T22:31:17.971Z,5.87
2018-08-09T22:33:47.165Z,6.00
2018-08-09T22:36:15.638Z,5.23
2018-08-09T22:38:44.037Z,5.03
2018-08-09T22:41:12.423Z,5.07
2018-08-09T22:43:40.817Z,5.37
2018-08-09T22:46:09.233Z,5.20
2018-08-09T22:48:37.637Z,5.10
2018-08-09T22:51:06.496Z,5.17
2018-08-09T22:53:35.090Z,5.17
2018-08-09T22:56:03.473Z,5.07
2018-08-09T22:58:31.901Z,5.33
2018-08-09T23:01:00.316Z,5.73
2018-08-09T23:03:28.703Z,5.60
2018-08-09T23:05:57.103Z,5.40
2018-08-09T23:08:25.506Z,5.47
2018-08-09T23:10:53.912Z,6.07
2018-08-09T23:13:22.814Z,5.70
2018-08-09T23:15:51.221Z,5.50
2018-08-09T23:18:19.602Z,5.17
2018-08-09T23:20:47.994Z,5.13
2018-08-09T23:23:16.840Z,5.40
2018-08-09T23:25:45.227Z,5.80
2018-08-09T23:28:13.617Z,5.63
2018-08-09T23:30:42.032Z,5.83
2018-08-09T23:33:10.802Z,5.47
2018-08-09T23:35:39.639Z,5.97
2018-08-09T23:38:08.140Z,5.77
2018-08-09T23:40:36.563Z,6.23
2018-08-09T23:43:05.595Z,5.80
2018-08-09T23:45:33.970Z,5.90
2018-08-09T23:48:02.566Z,5.63
2018-08-09T23:50:30.984Z,5.63
2018-08-09T23:52:59.379Z,6.80
2018-08-09T23:55:27.761Z,5.40
2018-08-09T23:57:56.150Z,5.63
